createdAt,value
2022-12-31T00:00:12.256Z,51.156075
2022-12-31T00:01:12.526Z,51.156109
2022-12-31T00:02:12.623Z,51.156097
2022-12-31T00:03:12.408Z,51.156166
2022-12-31T00:04:12.659Z,51.156174
2022-12-31T00:05:15.612Z,51.156120
2022-12-31T00:06:12.834Z,51.156147
2022-12-31T00:07:12.326Z,51.156181
2022-12-31T00:08:12.626Z,51.156155
2022-12-31T00:09:12.223Z,51.156158
2022-12-31T00:10:13.149Z,51.156097
2022-12-31T00:11:12.427Z,51.156075
2022-12-31T00:12:12.193Z,51.156071
2022-12-31T00:13:12.764Z,51.156124
2022-12-31T00:14:12.278Z,51.156136
2022-12-31T00:15:12.179Z,51.156174
2022-12-31T00:16:13.143Z,51.156143
2022-12-31T00:17:12.336Z,51.156094
2022-12-31T00:18:12.030Z,51.156101
2022-12-31T00:19:12.329Z,51.156090
2022-12-31T00:20:12.339Z,51.156120
2022-12-31T00:21:12.685Z,51.156071
2022-12-31T00:22:12.746Z,51.156097
2022-12-31T00:23:11.989Z,51.156097
2022-12-31T00:24:12.039Z,51.156136
2022-12-31T00:25:12.271Z,51.156109
2022-12-31T00:26:13.908Z,51.156105
2022-12-31T00:27:13.252Z,51.156097
2022-12-31T00:28:11.991Z,51.156048
2022-12-31T00:29:12.083Z,51.156071
2022-12-31T00:30:12.516Z,51.156086
2022-12-31T00:31:12.339Z,51.156097
2022-12-31T00:32:12.229Z,51.156105
2022-12-31T00:33:12.584Z,51.156094
2022-12-31T00:34:12.651Z,51.156120
2022-12-31T00:35:12.759Z,51.156109
2022-12-31T00:36:11.967Z,51.156128
2022-12-31T00:37:12.767Z,51.156139
2022-12-31T00:38:12.008Z,51.156120
2022-12-31T00:39:11.859Z,51.156097
2022-12-31T00:40:11.917Z,51.156109
2022-12-31T00:41:11.985Z,51.156158
2022-12-31T00:42:11.856Z,51.156101
2022-12-31T00:43:11.794Z,51.156071
2022-12-31T00:44:11.799Z,51.156063
2022-12-31T00:45:11.808Z,51.156128
2022-12-31T00:46:12.364Z,51.156139
2022-12-31T00:47:11.785Z,51.156113
2022-12-31T00:48:12.001Z,51.156189
2022-12-31T00:49:11.782Z,51.156132
2022-12-31T00:50:13.045Z,51.156109
2022-12-31T00:51:11.722Z,51.156120
2022-12-31T00:52:11.750Z,51.156178
2022-12-31T00:53:11.661Z,51.156143
2022-12-31T00:54:11.801Z,51.156101
2022-12-31T00:55:12.028Z,51.156113
2022-12-31T00:56:11.623Z,51.156139
2022-12-31T00:57:11.706Z,51.156162
2022-12-31T00:58:12.004Z,51.156101
2022-12-31T00:59:11.672Z,51.156063
2022-12-31T01:00:11.736Z,51.156052
2022-12-31T01:01:11.896Z,51.156116
2022-12-31T01:02:11.874Z,51.156109
2022-12-31T01:03:11.757Z,51.156212
2022-12-31T01:04:11.587Z,51.156174
2022-12-31T01:05:11.660Z,51.156136
2022-12-31T01:06:11.688Z,51.156082
2022-12-31T01:07:12.599Z,51.156158
2022-12-31T01:08:11.880Z,51.156120
2022-12-31T01:09:11.545Z,51.156128
2022-12-31T01:10:11.579Z,51.156086
2022-12-31T01:11:12.050Z,51.156147
2022-12-31T01:12:11.782Z,51.156086
2022-12-31T01:13:11.705Z,51.156124
2022-12-31T01:14:11.751Z,51.156155
2022-12-31T01:15:11.521Z,51.156204
2022-12-31T01:16:11.546Z,51.156139
2022-12-31T01:17:11.723Z,51.156155
2022-12-31T01:18:11.672Z,51.156132
2022-12-31T01:19:11.940Z,51.156143
2022-12-31T01:20:11.821Z,51.156136
2022-12-31T01:21:11.523Z,51.156105
2022-12-31T01:22:11.516Z,51.156120
2022-12-31T01:23:12.165Z,51.156097
2022-12-31T01:24:11.443Z,51.156094
2022-12-31T01:25:12.152Z,51.156082
2022-12-31T01:26:12.554Z,51.156109
2022-12-31T01:27:11.600Z,51.156116
2022-12-31T01:28:11.385Z,51.156147
2022-12-31T01:29:11.384Z,51.156113
2022-12-31T01:30:11.501Z,51.156139
2022-12-31T01:31:11.427Z,51.156109
2022-12-31T01:32:13.006Z,51.156044
2022-12-31T01:33:11.324Z,51.156101
2022-12-31T01:34:11.362Z,51.156124
2022-12-31T01:35:11.460Z,51.156101
2022-12-31T01:36:11.792Z,51.156128
2022-12-31T01:37:11.430Z,51.156116
2022-12-31T01:38:11.376Z,51.156094
2022-12-31T01:39:11.977Z,51.156113
2022-12-31T01:40:11.278Z,51.156116
2022-12-31T01:41:11.352Z,51.156109
2022-12-31T01:42:11.311Z,51.156075
2022-12-31T01:43:11.272Z,51.156052
2022-12-31T01:44:11.255Z,51.156086
2022-12-31T01:45:11.356Z,51.156113
2022-12-31T01:46:11.676Z,51.156105
2022-12-31T01:47:11.597Z,51.156151
2022-12-31T01:48:11.767Z,51.156143
2022-12-31T01:49:13.373Z,51.156185
2022-12-31T01:50:11.640Z,51.156189
2022-12-31T01:51:11.915Z,51.156139
2022-12-31T01:52:13.427Z,51.156151
2022-12-31T01:53:11.722Z,51.155975
2022-12-31T01:54:11.334Z,51.156147
2022-12-31T01:55:11.113Z,51.156143
2022-12-31T01:56:11.673Z,51.156128
2022-12-31T01:57:12.719Z,51.156158
2022-12-31T01:58:11.087Z,51.156101
2022-12-31T01:59:11.108Z,51.156078
2022-12-31T02:00:11.209Z,51.156090
2022-12-31T02:01:11.035Z,51.156109
2022-12-31T02:02:12.003Z,51.156136
2022-12-31T02:03:11.114Z,51.156162
2022-12-31T02:04:11.073Z,51.156185
2022-12-31T02:05:11.159Z,51.156170
2022-12-31T02:06:11.038Z,51.156147
2022-12-31T02:07:11.332Z,51.156166
2022-12-31T02:08:11.956Z,51.156124
2022-12-31T02:09:11.704Z,51.156139
2022-12-31T02:10:11.024Z,51.156120
2022-12-31T02:11:13.075Z,51.156101
2022-12-31T02:12:11.079Z,51.156178
2022-12-31T02:13:10.926Z,51.156185
2022-12-31T02:14:10.938Z,51.156189
2022-12-31T02:15:10.901Z,51.156151
2022-12-31T02:16:11.102Z,51.156174
2022-12-31T02:17:10.934Z,51.156193
2022-12-31T02:18:11.469Z,51.156178
2022-12-31T02:19:10.858Z,51.156178
2022-12-31T02:20:11.320Z,51.156219
2022-12-31T02:21:11.016Z,51.156189
2022-12-31T02:22:10.905Z,51.156200
2022-12-31T02:23:12.436Z,51.156181
2022-12-31T02:24:10.980Z,51.156212
2022-12-31T02:25:10.762Z,51.156235
2022-12-31T02:26:10.786Z,51.156151
2022-12-31T02:27:11.265Z,51.156147
2022-12-31T02:28:10.767Z,51.156128
2022-12-31T02:29:10.868Z,51.156113
2022-12-31T02:30:10.702Z,51.156124
2022-12-31T02:31:10.976Z,51.156258
2022-12-31T02:32:12.476Z,51.156208
2022-12-31T02:33:11.737Z,51.156239
2022-12-31T02:34:10.714Z,51.156219
2022-12-31T02:35:10.664Z,51.156200
2022-12-31T02:36:13.095Z,51.156227
2022-12-31T02:37:11.656Z,51.156227
2022-12-31T02:38:10.645Z,51.156258
2022-12-31T02:39:10.773Z,51.156204
2022-12-31T02:40:10.618Z,51.156227
2022-12-31T02:41:11.064Z,51.156212
2022-12-31T02:42:10.800Z,51.156174
2022-12-31T02:43:10.596Z,51.156219
2022-12-31T02:44:11.191Z,51.156227
2022-12-31T02:45:11.915Z,51.156235
2022-12-31T02:46:10.751Z,51.156239
2022-12-31T02:47:10.765Z,51.156219
2022-12-31T02:48:10.653Z,51.156086
2022-12-31T02:49:11.315Z,51.156143
2022-12-31T02:50:10.568Z,51.156151
2022-12-31T02:51:10.505Z,51.156219
2022-12-31T02:52:10.741Z,51.156246
2022-12-31T02:53:15.003Z,51.156311
2022-12-31T02:54:10.512Z,51.156288
2022-12-31T02:55:10.634Z,51.156273
2022-12-31T02:56:10.483Z,51.156227
2022-12-31T02:57:10.683Z,51.156151
2022-12-31T02:58:10.422Z,51.156075
2022-12-31T02:59:10.590Z,51.156189
2022-12-31T03:00:14.441Z,51.156204
2022-12-31T03:01:10.617Z,51.156181
2022-12-31T03:02:10.610Z,51.156189
2022-12-31T03:03:10.496Z,51.156208
2022-12-31T03:04:11.790Z,51.156178
2022-12-31T03:05:10.364Z,51.156143
2022-12-31T03:06:10.545Z,51.156109
2022-12-31T03:07:10.419Z,51.156033
2022-12-31T03:08:10.440Z,51.156094
2022-12-31T03:09:13.620Z,51.156113
2022-12-31T03:10:10.634Z,51.156231
2022-12-31T03:11:10.542Z,51.156231
2022-12-31T03:12:10.393Z,51.156204
2022-12-31T03:13:11.580Z,51.156105
2022-12-31T03:14:10.586Z,51.156090
2022-12-31T03:15:10.432Z,51.156082
2022-12-31T03:16:10.279Z,51.156071
2022-12-31T03:17:10.348Z,51.155983
2022-12-31T03:18:10.320Z,51.156055
2022-12-31T03:19:11.004Z,51.156101
2022-12-31T03:20:10.321Z,51.156116
2022-12-31T03:21:10.765Z,51.156067
2022-12-31T03:22:10.267Z,51.156071
2022-12-31T03:23:10.267Z,51.156067
2022-12-31T03:24:10.228Z,51.156086
2022-12-31T03:25:10.275Z,51.156124
2022-12-31T03:26:10.342Z,51.156071
2022-12-31T03:27:10.349Z,51.156078
2022-12-31T03:28:10.635Z,51.156116
2022-12-31T03:29:10.196Z,51.156124
2022-12-31T03:30:10.367Z,51.156105
2022-12-31T03:31:10.242Z,51.156139
2022-12-31T03:32:10.248Z,51.156067
2022-12-31T03:33:10.185Z,51.156078
2022-12-31T03:34:10.169Z,51.156086
2022-12-31T03:35:10.089Z,51.156082
2022-12-31T03:36:11.473Z,51.156086
2022-12-31T03:37:10.199Z,51.156086
2022-12-31T03:38:10.061Z,51.156082
2022-12-31T03:39:10.310Z,51.156052
2022-12-31T03:40:10.134Z,51.156033
2022-12-31T03:41:10.215Z,51.156067
2022-12-31T03:42:10.444Z,51.156059
2022-12-31T03:43:10.256Z,51.156055
2022-12-31T03:44:10.152Z,51.156044
2022-12-31T03:45:10.277Z,51.156063
2022-12-31T03:46:10.310Z,51.156044
2022-12-31T03:47:10.111Z,51.156082
2022-12-31T03:48:10.825Z,51.156078
2022-12-31T03:49:10.090Z,51.156105
2022-12-31T03:50:10.503Z,51.156105
2022-12-31T03:51:09.954Z,51.156101
2022-12-31T03:52:10.163Z,51.156082
2022-12-31T03:53:10.131Z,51.156094
2022-12-31T03:54:10.832Z,51.156082
2022-12-31T03:55:10.178Z,51.156067
2022-12-31T03:56:11.310Z,51.156052
2022-12-31T03:57:11.903Z,51.156082
2022-12-31T03:58:13.023Z,51.156078
2022-12-31T03:59:12.025Z,51.156082
2022-12-31T04:00:10.867Z,51.156086
2022-12-31T04:01:10.237Z,51.156097
2022-12-31T04:02:10.108Z,51.156094
2022-12-31T04:03:10.031Z,51.156094
2022-12-31T04:04:10.004Z,51.156090
2022-12-31T04:05:11.792Z,51.156094
2022-12-31T04:06:09.868Z,51.156101
2022-12-31T04:07:09.999Z,51.156086
2022-12-31T04:08:10.425Z,51.156097
2022-12-31T04:09:10.112Z,51.156090
2022-12-31T04:10:09.832Z,51.156082
2022-12-31T04:11:10.239Z,51.156086
2022-12-31T04:12:09.825Z,51.156067
2022-12-31T04:13:09.909Z,51.156055
2022-12-31T04:14:09.873Z,51.156086
2022-12-31T04:15:09.838Z,51.156071
2022-12-31T04:16:10.757Z,51.156059
2022-12-31T04:17:10.796Z,51.156055
2022-12-31T04:18:09.743Z,51.156059
2022-12-31T04:19:09.726Z,51.156116
2022-12-31T04:20:10.123Z,51.156147
2022-12-31T04:21:09.690Z,51.156082
2022-12-31T04:22:09.936Z,51.156078
2022-12-31T04:23:10.022Z,51.156086
2022-12-31T04:24:09.690Z,51.156097
2022-12-31T04:25:09.697Z,51.156101
2022-12-31T04:26:09.661Z,51.156063
2022-12-31T04:27:09.667Z,51.156033
2022-12-31T04:28:09.719Z,51.156113
2022-12-31T04:29:09.686Z,51.156124
2022-12-31T04:30:09.809Z,51.156101
2022-12-31T04:31:10.070Z,51.156105
2022-12-31T04:32:09.793Z,51.156086
2022-12-31T04:33:09.710Z,51.156063
2022-12-31T04:34:09.553Z,51.156055
2022-12-31T04:35:09.743Z,51.156059
2022-12-31T04:36:09.523Z,51.156059
2022-12-31T04:37:09.763Z,51.156048
2022-12-31T04:38:09.631Z,51.156052
2022-12-31T04:39:09.572Z,51.156097
2022-12-31T04:40:09.972Z,51.156101
2022-12-31T04:41:09.776Z,51.156116
2022-12-31T04:42:09.598Z,51.156097
2022-12-31T04:43:10.182Z,51.156082
2022-12-31T04:44:09.591Z,51.156078
2022-12-31T04:53:27.959Z,51.156063
2022-12-31T04:54:27.830Z,51.156055
2022-12-31T04:55:28.944Z,51.156044
2022-12-31T04:56:27.675Z,51.156063
2022-12-31T04:57:27.570Z,51.156094
2022-12-31T04:58:28.156Z,51.156078
2022-12-31T04:59:27.580Z,51.156101
2022-12-31T05:00:27.545Z,51.156090
2022-12-31T05:01:27.776Z,51.156086
2022-12-31T05:02:27.569Z,51.156109
2022-12-31T05:03:28.074Z,51.156101
2022-12-31T05:04:29.130Z,51.156075
2022-12-31T05:05:27.510Z,51.156094
2022-12-31T05:06:28.362Z,51.156071
2022-12-31T05:07:27.472Z,51.156063
2022-12-31T05:08:27.669Z,51.156071
2022-12-31T05:09:30.747Z,51.156075
2022-12-31T05:10:27.836Z,51.156078
2022-12-31T05:11:28.919Z,51.156036
2022-12-31T05:17:35.745Z,51.155941
2022-12-31T05:18:35.390Z,51.156052
2022-12-31T05:19:35.334Z,51.156155
2022-12-31T05:20:35.624Z,51.156078
2022-12-31T05:21:35.182Z,51.156082
2022-12-31T05:22:35.262Z,51.156067
2022-12-31T05:23:35.759Z,51.156094
2022-12-31T05:24:35.394Z,51.156086
2022-12-31T05:25:35.086Z,51.156101
2022-12-31T05:26:35.330Z,51.156120
2022-12-31T05:27:35.217Z,51.156136
2022-12-31T05:28:35.213Z,51.156120
2022-12-31T05:29:35.148Z,51.156090
2022-12-31T05:30:35.177Z,51.156078
2022-12-31T05:31:35.154Z,51.156105
2022-12-31T05:32:35.049Z,51.156116
2022-12-31T05:33:35.157Z,51.156116
2022-12-31T05:34:35.080Z,51.156120
2022-12-31T05:35:35.303Z,51.156101
2022-12-31T05:36:35.071Z,51.156094
2022-12-31T05:37:35.129Z,51.156078
2022-12-31T05:38:35.094Z,51.156078
2022-12-31T05:39:36.126Z,51.156086
2022-12-31T05:40:35.136Z,51.156082
2022-12-31T05:41:35.270Z,51.156101
2022-12-31T05:42:35.002Z,51.156113
2022-12-31T05:43:36.271Z,51.156113
2022-12-31T05:44:34.954Z,51.156101
2022-12-31T05:45:34.885Z,51.156101
2022-12-31T05:46:35.323Z,51.156075
2022-12-31T05:47:35.975Z,51.156116
2022-12-31T05:48:34.889Z,51.156120
2022-12-31T05:49:35.557Z,51.156158
2022-12-31T05:50:34.862Z,51.156113
2022-12-31T05:51:34.931Z,51.156132
2022-12-31T05:52:34.868Z,51.156101
2022-12-31T05:53:34.862Z,51.156078
2022-12-31T05:54:34.952Z,51.156086
2022-12-31T05:55:34.796Z,51.156090
2022-12-31T05:56:34.798Z,51.156086
2022-12-31T05:57:34.937Z,51.156082
2022-12-31T05:58:34.840Z,51.156063
2022-12-31T05:59:34.839Z,51.156113
2022-12-31T06:00:34.824Z,51.156113
2022-12-31T06:01:35.183Z,51.156078
2022-12-31T06:02:34.784Z,51.156113
2022-12-31T06:03:35.008Z,51.156071
2022-12-31T06:04:34.743Z,51.156063
2022-12-31T06:05:34.974Z,51.156086
2022-12-31T06:06:35.528Z,51.156094
2022-12-31T06:07:34.711Z,51.156078
2022-12-31T06:08:34.762Z,51.156101
2022-12-31T06:09:34.670Z,51.156094
2022-12-31T06:10:34.690Z,51.156101
2022-12-31T06:11:35.749Z,51.156101
2022-12-31T06:12:34.675Z,51.156086
2022-12-31T06:13:35.455Z,51.156105
2022-12-31T06:14:34.700Z,51.156021
2022-12-31T06:15:35.072Z,51.156075
2022-12-31T06:16:34.928Z,51.156082
2022-12-31T06:17:34.710Z,51.156094
2022-12-31T06:18:34.847Z,51.156040
2022-12-31T06:36:21.753Z,51.156097
2022-12-31T06:37:21.538Z,51.156086
2022-12-31T06:38:21.389Z,51.156082
2022-12-31T06:39:21.364Z,51.156105
2022-12-31T06:40:21.421Z,51.156097
2022-12-31T06:41:21.210Z,51.156078
2022-12-31T06:42:21.499Z,51.156059
2022-12-31T06:43:21.856Z,51.156086
2022-12-31T06:44:21.302Z,51.156105
2022-12-31T06:45:21.140Z,51.156090
2022-12-31T06:46:21.172Z,51.156078
2022-12-31T06:47:21.162Z,51.156109
2022-12-31T06:48:22.024Z,51.156105
2022-12-31T06:49:21.328Z,51.156071
2022-12-31T06:50:21.122Z,51.156082
2022-12-31T06:51:21.374Z,51.156097
2022-12-31T06:52:21.091Z,51.156071
2022-12-31T06:53:22.178Z,51.156075
2022-12-31T06:54:21.220Z,51.156097
2022-12-31T06:55:21.144Z,51.156120
2022-12-31T06:56:25.274Z,51.156113
2022-12-31T06:57:22.168Z,51.156151
2022-12-31T06:58:21.905Z,51.156109
2022-12-31T06:59:21.146Z,51.156139
2022-12-31T07:00:21.309Z,51.156147
2022-12-31T07:01:21.490Z,51.156231
2022-12-31T07:02:20.979Z,51.156242
2022-12-31T07:03:21.009Z,51.156128
2022-12-31T07:04:21.038Z,51.156101
2022-12-31T07:05:21.402Z,51.156090
2022-12-31T07:06:22.707Z,51.156101
2022-12-31T07:07:22.669Z,51.156105
2022-12-31T07:08:21.470Z,51.156090
2022-12-31T07:09:21.592Z,51.156116
2022-12-31T07:10:27.276Z,51.156113
2022-12-31T07:11:23.317Z,51.156113
2022-12-31T07:12:21.485Z,51.156116
2022-12-31T07:13:21.159Z,51.156094
2022-12-31T07:14:22.599Z,51.156090
2022-12-31T07:15:21.382Z,51.156094
2022-12-31T07:16:21.299Z,51.156109
2022-12-31T07:17:20.910Z,51.156094
2022-12-31T07:18:22.014Z,51.156097
2022-12-31T07:19:21.011Z,51.156082
2022-12-31T07:20:22.465Z,51.156097
2022-12-31T07:21:21.171Z,51.156086
2022-12-31T07:22:21.092Z,51.156105
2022-12-31T07:23:21.419Z,51.156109
2022-12-31T07:24:21.114Z,51.156075
2022-12-31T07:25:20.713Z,51.156071
2022-12-31T07:26:22.962Z,51.156082
2022-12-31T07:27:21.159Z,51.156059
2022-12-31T07:28:20.982Z,51.156097
2022-12-31T07:29:22.016Z,51.156101
2022-12-31T07:30:21.137Z,51.156086
2022-12-31T07:31:20.890Z,51.156101
2022-12-31T07:32:23.660Z,51.156097
2022-12-31T07:33:20.934Z,51.156116
2022-12-31T07:34:21.016Z,51.156120
2022-12-31T07:35:20.711Z,51.156120
2022-12-31T07:36:21.471Z,51.156128
2022-12-31T07:37:20.697Z,51.156132
2022-12-31T07:38:20.696Z,51.156109
2022-12-31T07:39:21.298Z,51.156124
2022-12-31T07:40:22.144Z,51.156105
2022-12-31T07:41:20.714Z,51.156094
2022-12-31T07:42:20.819Z,51.156097
2022-12-31T07:43:21.061Z,51.156097
2022-12-31T07:44:22.010Z,51.156078
2022-12-31T07:55:11.619Z,51.156075
2022-12-31T07:56:12.396Z,51.156071
2022-12-31T07:57:11.651Z,51.156063
2022-12-31T07:58:44.057Z,51.156128
2022-12-31T07:59:12.105Z,51.156071
2022-12-31T08:00:14.065Z,51.156067
2022-12-31T08:01:11.550Z,51.156090
2022-12-31T08:02:12.366Z,51.156109
2022-12-31T08:03:38.787Z,51.156155
2022-12-31T08:04:18.519Z,51.156021
2022-12-31T08:16:50.636Z,51.156078
2022-12-31T08:17:49.743Z,51.156132
2022-12-31T08:18:49.811Z,51.156147
2022-12-31T08:19:49.202Z,51.156147
2022-12-31T08:20:49.356Z,51.156128
2022-12-31T08:21:48.987Z,51.156090
2022-12-31T08:22:49.111Z,51.156078
2022-12-31T08:23:50.069Z,51.156082
2022-12-31T08:24:48.890Z,51.156025
2022-12-31T08:25:51.424Z,51.156048
2022-12-31T08:26:52.992Z,51.156067
2022-12-31T08:27:50.148Z,51.156075
2022-12-31T08:28:49.535Z,51.156063
2022-12-31T08:29:49.572Z,51.156059
2022-12-31T08:30:49.381Z,51.156044
2022-12-31T08:31:49.185Z,51.156044
2022-12-31T08:32:49.060Z,51.156040
2022-12-31T08:33:49.024Z,51.156044
2022-12-31T08:34:48.823Z,51.156059
2022-12-31T08:35:48.827Z,51.156090
2022-12-31T08:36:48.743Z,51.156063
2022-12-31T08:37:48.745Z,51.156052
2022-12-31T08:38:48.897Z,51.156040
2022-12-31T08:40:21.811Z,51.156055
2022-12-31T08:51:00.299Z,51.156235
2022-12-31T08:52:00.079Z,51.156193
2022-12-31T08:53:00.159Z,51.156067
2022-12-31T08:54:00.024Z,51.156094
2022-12-31T08:55:00.105Z,51.156109
2022-12-31T08:55:59.970Z,51.156132
2022-12-31T08:57:00.103Z,51.156097
2022-12-31T08:57:59.960Z,51.156040
2022-12-31T08:59:00.120Z,51.156090
2022-12-31T09:00:00.269Z,51.156078
2022-12-31T09:01:00.350Z,51.156113
2022-12-31T09:02:00.071Z,51.156097
2022-12-31T09:03:00.032Z,51.156078
2022-12-31T09:04:00.434Z,51.156097
2022-12-31T09:17:39.191Z,51.156078
2022-12-31T09:18:39.185Z,51.156082
2022-12-31T09:19:40.346Z,51.156090
2022-12-31T09:20:44.176Z,51.156059
2022-12-31T09:21:41.206Z,51.156113
2022-12-31T09:22:39.281Z,51.156036
2022-12-31T09:23:39.227Z,51.156116
2022-12-31T09:24:39.187Z,51.156113
2022-12-31T09:25:39.010Z,51.156128
2022-12-31T09:26:39.057Z,51.156113
2022-12-31T09:27:39.090Z,51.156078
2022-12-31T09:28:39.042Z,51.156086
2022-12-31T09:29:39.087Z,51.156101
2022-12-31T09:30:39.255Z,51.156094
2022-12-31T09:31:39.159Z,51.156055
2022-12-31T09:32:38.913Z,51.156067
2022-12-31T09:33:38.934Z,51.156075
2022-12-31T09:34:38.911Z,51.156090
2022-12-31T09:35:38.946Z,51.156055
2022-12-31T09:36:38.870Z,51.156105
2022-12-31T09:37:38.851Z,51.156063
2022-12-31T09:38:39.185Z,51.156029
2022-12-31T09:39:38.822Z,51.156082
2022-12-31T09:40:39.168Z,51.156067
2022-12-31T09:41:38.842Z,51.156063
2022-12-31T09:42:38.814Z,51.156075
2022-12-31T09:43:38.798Z,51.156071
2022-12-31T09:44:40.460Z,51.156067
2022-12-31T09:46:11.638Z,51.156059
2022-12-31T09:46:39.142Z,51.156082
2022-12-31T09:53:22.180Z,51.156059
2022-12-31T09:54:22.680Z,51.155968
2022-12-31T09:55:24.128Z,51.156086
2022-12-31T09:56:22.092Z,51.156071
2022-12-31T09:57:22.149Z,51.156052
2022-12-31T10:07:16.306Z,51.156136
2022-12-31T10:08:15.105Z,51.156120
2022-12-31T10:09:15.090Z,51.156063
2022-12-31T10:10:14.950Z,51.156052
2022-12-31T10:11:15.339Z,51.156033
2022-12-31T10:12:47.664Z,51.156040
2022-12-31T10:13:21.920Z,51.156055
2022-12-31T10:29:38.161Z,51.156067
2022-12-31T10:37:51.797Z,51.156109
2022-12-31T10:38:51.906Z,51.156075
2022-12-31T10:39:51.801Z,51.156105
2022-12-31T10:40:51.796Z,51.156101
2022-12-31T10:41:51.826Z,51.156067
2022-12-31T10:42:52.586Z,51.156059
2022-12-31T10:43:51.700Z,51.156067
2022-12-31T10:44:51.589Z,51.156082
2022-12-31T10:45:52.493Z,51.156075
2022-12-31T10:46:51.795Z,51.156082
2022-12-31T10:47:51.562Z,51.156105
2022-12-31T10:48:52.290Z,51.156109
2022-12-31T10:49:51.649Z,51.156090
2022-12-31T10:50:54.937Z,51.156055
2022-12-31T10:51:54.705Z,51.156063
2022-12-31T10:52:53.046Z,51.156101
2022-12-31T10:53:52.331Z,51.156090
2022-12-31T10:54:55.045Z,51.156101
2022-12-31T10:55:52.252Z,51.156094
2022-12-31T10:56:54.005Z,51.156094
2022-12-31T10:57:51.531Z,51.156086
2022-12-31T10:58:51.685Z,51.156086
2022-12-31T10:59:51.623Z,51.156109
2022-12-31T11:00:51.667Z,51.156097
2022-12-31T11:01:52.651Z,51.156082
2022-12-31T11:02:51.682Z,51.156097
2022-12-31T11:03:51.842Z,51.156086
2022-12-31T11:04:51.677Z,51.156101
2022-12-31T11:05:51.791Z,51.156097
2022-12-31T11:06:51.503Z,51.156094
2022-12-31T11:07:51.510Z,51.156082
2022-12-31T11:08:51.469Z,51.156086
2022-12-31T11:09:51.681Z,51.156090
2022-12-31T11:10:51.940Z,51.156082
2022-12-31T11:11:51.565Z,51.156082
2022-12-31T11:12:51.442Z,51.156097
2022-12-31T11:13:51.442Z,51.156090
2022-12-31T11:14:52.401Z,51.156101
2022-12-31T11:15:51.493Z,51.156113
2022-12-31T11:16:51.505Z,51.156109
2022-12-31T11:17:51.450Z,51.156101
2022-12-31T11:18:51.298Z,51.156101
2022-12-31T11:19:51.795Z,51.156105
2022-12-31T11:20:51.274Z,51.156075
2022-12-31T11:21:52.414Z,51.156048
2022-12-31T11:22:51.270Z,51.156029
2022-12-31T11:23:52.531Z,51.156052
2022-12-31T11:24:51.240Z,51.156071
2022-12-31T11:25:51.311Z,51.156078
2022-12-31T11:26:52.081Z,51.156078
2022-12-31T11:27:51.191Z,51.156113
2022-12-31T11:34:59.586Z,51.156094
2022-12-31T11:35:59.344Z,51.156071
2022-12-31T11:36:58.847Z,51.156082
2022-12-31T11:37:59.086Z,51.156101
2022-12-31T11:38:58.932Z,51.156094
2022-12-31T11:39:58.959Z,51.156082
2022-12-31T11:40:58.970Z,51.156090
2022-12-31T11:41:58.715Z,51.156082
2022-12-31T11:42:58.941Z,51.156078
2022-12-31T11:43:58.851Z,51.156078
2022-12-31T11:44:58.765Z,51.156094
2022-12-31T11:45:58.793Z,51.156109
2022-12-31T11:46:59.555Z,51.156101
2022-12-31T11:48:29.601Z,51.156124
2022-12-31T11:49:00.802Z,51.156128
2022-12-31T11:49:58.668Z,51.156128
2022-12-31T11:50:59.326Z,51.156139
2022-12-31T11:51:58.687Z,51.156155
2022-12-31T11:52:58.713Z,51.156158
2022-12-31T11:53:58.754Z,51.156128
2022-12-31T11:54:58.634Z,51.156101
2022-12-31T11:55:58.581Z,51.156132
2022-12-31T11:56:58.670Z,51.156155
2022-12-31T11:57:58.611Z,51.156132
2022-12-31T11:58:58.604Z,51.156116
2022-12-31T11:59:58.602Z,51.156128
2022-12-31T12:00:58.661Z,51.156109
2022-12-31T12:01:58.659Z,51.156109
2022-12-31T12:02:59.044Z,51.156105
2022-12-31T12:03:58.576Z,51.156109
2022-12-31T12:04:58.567Z,51.156101
2022-12-31T12:05:58.550Z,51.156105
2022-12-31T12:06:58.613Z,51.156113
2022-12-31T12:07:58.553Z,51.156090
2022-12-31T12:08:58.610Z,51.156086
2022-12-31T12:09:58.628Z,51.156124
2022-12-31T12:15:28.675Z,51.156078
2022-12-31T12:16:28.373Z,51.156097
2022-12-31T12:17:28.320Z,51.156071
2022-12-31T12:18:28.334Z,51.156082
2022-12-31T12:19:28.229Z,51.156086
2022-12-31T12:20:28.240Z,51.156086
2022-12-31T12:21:28.217Z,51.156090
2022-12-31T12:22:28.319Z,51.156086
2022-12-31T12:23:28.209Z,51.156078
2022-12-31T12:24:28.198Z,51.156078
2022-12-31T12:25:28.177Z,51.156090
2022-12-31T12:26:28.195Z,51.156078
2022-12-31T12:27:28.148Z,51.156090
2022-12-31T12:28:28.202Z,51.156090
2022-12-31T12:29:28.175Z,51.156090
2022-12-31T12:30:28.342Z,51.156075
2022-12-31T12:31:28.181Z,51.156082
2022-12-31T12:32:28.626Z,51.156090
2022-12-31T12:33:28.123Z,51.156101
2022-12-31T12:34:28.391Z,51.156075
2022-12-31T12:35:28.571Z,51.156109
2022-12-31T12:36:28.100Z,51.156116
2022-12-31T12:37:28.048Z,51.156059
2022-12-31T12:38:28.067Z,51.156097
2022-12-31T12:39:28.038Z,51.156105
2022-12-31T12:40:33.782Z,51.156094
2022-12-31T12:41:29.239Z,51.156090
2022-12-31T12:42:28.010Z,51.156113
2022-12-31T12:43:28.207Z,51.156105
2022-12-31T12:44:27.972Z,51.156132
2022-12-31T12:45:27.963Z,51.156124
2022-12-31T12:46:28.007Z,51.156071
2022-12-31T12:47:27.995Z,51.156113
2022-12-31T12:48:27.899Z,51.156120
2022-12-31T12:49:28.058Z,51.156116
2022-12-31T12:50:28.158Z,51.156101
2022-12-31T12:51:28.599Z,51.156116
2022-12-31T12:52:28.514Z,51.156116
2022-12-31T12:53:27.886Z,51.156124
2022-12-31T12:54:29.101Z,51.156101
2022-12-31T12:55:28.045Z,51.156116
2022-12-31T12:56:27.920Z,51.156101
2022-12-31T12:57:27.946Z,51.156124
2022-12-31T12:58:27.956Z,51.156109
2022-12-31T12:59:28.015Z,51.156113
2022-12-31T13:00:28.148Z,51.156105
2022-12-31T13:01:27.879Z,51.156086
2022-12-31T13:02:28.512Z,51.156101
2022-12-31T13:03:28.294Z,51.156101
2022-12-31T13:04:35.629Z,51.156094
2022-12-31T13:05:30.012Z,51.156109
2022-12-31T13:06:27.801Z,51.156086
2022-12-31T13:07:27.749Z,51.156151
2022-12-31T13:08:27.861Z,51.156124
2022-12-31T13:09:27.831Z,51.156120
2022-12-31T13:10:27.914Z,51.156116
2022-12-31T13:11:27.769Z,51.156116
2022-12-31T13:12:27.684Z,51.156136
2022-12-31T13:13:27.822Z,51.156116
2022-12-31T13:14:28.039Z,51.156116
2022-12-31T13:15:27.684Z,51.156109
2022-12-31T13:16:27.713Z,51.156120
2022-12-31T13:17:27.866Z,51.156116
2022-12-31T13:18:27.692Z,51.156136
2022-12-31T13:19:29.722Z,51.156155
2022-12-31T13:20:27.589Z,51.156136
2022-12-31T13:21:27.580Z,51.156124
2022-12-31T13:22:27.629Z,51.156090
2022-12-31T13:23:27.572Z,51.156078
2022-12-31T13:24:27.668Z,51.156101
2022-12-31T13:25:27.574Z,51.156067
2022-12-31T13:26:27.605Z,51.156124